• Join FlightAware (Why Join?)
  • Login
  • US Flag 
10:48PM EST


 

Airport Tracker/Info


-or-


 

Live Flight TrackerFlight Track Log ✈ HTL909 ✈ 31-Jan-2012 ✈ KAUS - KDAL

Flight Track Log - Related Links

Times and Time Zones

All times are in EST time to prevent confusion due to time zone crossing. See the HTL909 flight status page for this flight to view local times or setup timezone preferences in your user account.

Time Position Orientation Groundspeed Altitude Reporting Facility
EST Latitude Longitude Course Direction KTS MPH feet Rate Location/Type
02:51PM 30.2812 -97.6412 147° Southeast  Level FlightAware Approximate
02:52PM 30.1719 -97.5600 28° Northeast 277 319 9,300  Level Houston Center
02:53PM 30.2469 -97.5139 30° Northeast 284 327 11,600 2,100 Climbing Houston Center
02:54PM 30.3372 -97.4542 30° Northeast 320 368 13,600 1,920 Climbing Houston Center
02:55PM 30.4272 -97.3944 29° Northeast 353 406 15,500 1,860 Climbing Houston Center
02:56PM 30.5194 -97.3344 35° Northeast 367 422 17,400 1,740 Climbing Houston Center
02:57PM 30.6081 -97.2622 48° Northeast 381 438 19,000 1,740 Climbing Houston Center
02:58PM 30.6831 -97.1653 45° Northeast 381 438 20,900 1,500 Climbing Houston Center
02:59PM 30.7639 -97.0706 46° Northeast 401 461 22,000 540 Climbing Houston Center
03:00PM 30.8494 -96.9664 45° Northeast 424 488 22,000  Level Houston Center
03:01PM 30.9369 -96.8644 46° Northeast 440 506 22,000  Level Houston Center
03:03PM 31.0631 -96.7100 46° Northeast 436 502 22,000  Level Fort Worth Center
03:04PM 31.1522 -96.6025 46° Northeast 436 502 22,000  Level Fort Worth Center
03:05PM 31.2372 -96.4997 24° Northeast 431 496 22,000  Level Fort Worth Center
03:06PM 31.3453 -96.4428 North 426 490 22,000  Level Fort Worth Center
03:07PM 31.4600 -96.4342 North 404 465 22,000  Level Fort Worth Center
03:08PM 31.5769 -96.4281 North 417 480 22,000 -180 Level Fort Worth Center
03:09PM 31.6939 -96.4197 North 417 480 21,700 -660 Descending Fort Worth Center
03:10PM 31.8064 -96.4136 North 417 480 20,700 -1,440 Descending Fort Worth Center
03:11PM 31.9233 -96.4050 North 417 480 18,900 -1,860 Descending Fort Worth Center
03:12PM 32.0319 -96.3989 North 400 460 17,000 -2,100 Descending Fort Worth Center
03:13PM 32.1467 -96.3903 77° East 387 445 14,800 -2,400 Descending Fort Worth Center
03:13PM 32.1483 -96.3817 North 376 433 14,500 -2,760 Descending FAA TRACON SMA TRACON (SMA)
03:13PM 32.1881 -96.3786 360° North 373 429 13,700 -2,100 Descending FAA TRACON SMA TRACON (SMA)
03:13PM 32.2175 -96.3786 North 363 418 13,100 -2,100 Descending FAA TRACON SMA TRACON (SMA)
03:14PM 32.2536 -96.3764 North 347 399 12,300 -1,980 Descending FAA TRACON SMA TRACON (SMA)
03:14PM 32.2817 -96.3742 North 337 388 11,800 -1,560 Descending FAA TRACON SMA TRACON (SMA)
03:14PM 32.3089 -96.3725 North 325 374 11,300 -1,500 Descending FAA TRACON SMA TRACON (SMA)
03:15PM 32.3339 -96.3719 North 312 359 10,800 -1,800 Descending FAA TRACON SMA TRACON (SMA)
03:15PM 32.3664 -96.3700 North 304 350 10,100 -1,980 Descending FAA TRACON SMA TRACON (SMA)
03:15PM 32.3925 -96.3681 North 301 346 9,500 -1,680 Descending FAA TRACON SMA TRACON (SMA)
03:16PM 32.4247 -96.3658 351° North 299 344 9,000 -900 Descending FAA TRACON SMA TRACON (SMA)
03:16PM 32.4483 -96.3703 337° Northwest 295 339 8,900 -180 Descending FAA TRACON SMA TRACON (SMA)
03:16PM 32.4703 -96.3814 332° Northwest 286 329 8,900  Level FAA TRACON SMA TRACON (SMA)
03:17PM 32.4914 -96.3947 333° Northwest 280 322 8,900 -480 Level FAA TRACON SMA TRACON (SMA)
03:17PM 32.5183 -96.4111 331° Northwest 280 322 8,600 -1,380 Descending FAA TRACON SMA TRACON (SMA)
03:17PM 32.5386 -96.4244 333° Northwest 277 319 8,000 -2,100 Descending FAA TRACON SMA TRACON (SMA)
03:18PM 32.5653 -96.4406 331° Northwest 276 318 7,200 -2,100 Descending FAA TRACON SMA TRACON (SMA)
03:18PM 32.5853 -96.4536 333° Northwest 273 314 6,600 -1,800 Descending FAA TRACON SMA TRACON (SMA)
03:18PM 32.6064 -96.4661 332° Northwest 273 314 6,000 -2,160 Descending FAA TRACON SMA TRACON (SMA)
03:19PM 32.6317 -96.4822 332° Northwest 271 312 5,200 -1,560 Descending FAA TRACON SMA TRACON (SMA)
03:19PM 32.6522 -96.4950 333° Northwest 270 311 5,000 -480 Descending FAA TRACON SMA TRACON (SMA)
03:19PM 32.6722 -96.5072 321° Northwest 268 308 4,900 -180 Descending FAA TRACON SMA TRACON (SMA)
03:20PM 32.6936 -96.5281 317° Northwest 261 300 4,900  Level FAA TRACON SMA TRACON (SMA)
03:20PM 32.7100 -96.5464 318° Northwest 261 300 4,900  Level FAA TRACON SMA TRACON (SMA)
03:20PM 32.7264 -96.5639 319° Northwest 261 300 4,900  Level FAA TRACON SMA TRACON (SMA)
03:21PM 32.7472 -96.5856 318° Northwest 259 298 4,900  Level FAA TRACON SMA TRACON (SMA)
03:21PM 32.7639 -96.6033 320° Northwest 259 298 4,900  Level FAA TRACON SMA TRACON (SMA)
03:21PM 32.7808 -96.6203 318° Northwest 261 300 4,900  Level FAA TRACON SMA TRACON (SMA)
03:22PM 32.8014 -96.6419 320° Northwest 259 298 4,900  Level FAA TRACON SMA TRACON (SMA)
03:22PM 32.8186 -96.6589 319° Northwest 259 298 4,900  Level FAA TRACON SMA TRACON (SMA)
03:22PM 32.8353 -96.6761 319° Northwest 259 298 4,900 -300 Level FAA TRACON SMA TRACON (SMA)
03:23PM 32.8561 -96.6978 319° Northwest 259 298 4,700 -780 Descending FAA TRACON SMA TRACON (SMA)
03:23PM 32.8728 -96.7150 319° Northwest 259 298 4,400 -900 Descending FAA TRACON SMA TRACON (SMA)
03:23PM 32.8897 -96.7325 318° Northwest 260 299 4,100 -780 Descending FAA TRACON SMA TRACON (SMA)
03:24PM 32.9100 -96.7544 319° Northwest 258 297 3,900 -360 Descending FAA TRACON SMA TRACON (SMA)
03:24PM 32.9264 -96.7717 300° West 258 297 3,900  Level FAA TRACON SMA TRACON (SMA)
03:24PM 32.9364 -96.7925 289° West 248 285 3,900  Level FAA TRACON SMA TRACON (SMA)
03:25PM 32.9436 -96.8169 289° West 209 241 3,900 120 Level FAA TRACON SMA TRACON (SMA)
03:25PM 32.9486 -96.8344 289° West 188 216 4,000  Climbing FAA TRACON SMA TRACON (SMA)
03:25PM 32.9536 -96.8514 290° West 175 201 3,900 -1,080 Descending FAA TRACON SMA TRACON (SMA)
03:26PM 32.9600 -96.8722 289° West 173 199 3,300 -1,380 Descending FAA TRACON SMA TRACON (SMA)
03:26PM 32.9647 -96.8889 241° Southwest 175 201 3,000 -600 Descending FAA TRACON SMA TRACON (SMA)
03:26PM 32.9586 -96.9022 203° Southwest 177 204 2,900 -780 Descending FAA TRACON SMA TRACON (SMA)
03:27PM 32.9425 -96.9103 200° South 165 190 2,500 -1,080 Descending FAA TRACON SMA TRACON (SMA)
03:27PM 32.9294 -96.9158 194° South 161 185 2,200 -780 Descending FAA TRACON SMA TRACON (SMA)
03:27PM 32.9158 -96.9200 166° South 162 186 2,000 -960 Descending FAA TRACON SMA TRACON (SMA)
03:28PM 32.8997 -96.9153 142° Southeast 163 188 1,600 -900 Descending FAA TRACON SMA TRACON (SMA)
03:28PM 32.8897 -96.9061 135° Southeast 154 177 1,400 -480 Descending FAA TRACON SMA TRACON (SMA)
03:28PM 32.8822 -96.8972 138° Southeast 131 151 1,300 -660 Descending FAA TRACON SMA TRACON (SMA)
03:29PM 32.8728 -96.8869 136° Southeast 119 137 1,000 -600 Descending FAA TRACON SMA TRACON (SMA)
03:29PM 32.8653 -96.8783 134° Southeast 119 137 900 -480 Descending FAA TRACON SMA TRACON (SMA)
03:29PM 32.8586 -96.8700 136° Southeast 116 133 700 -480 Descending FAA TRACON SMA TRACON (SMA)
03:30PM 32.8533 -96.8639 136° Southeast 117 135 600 -300 Descending FAA TRACON SMA TRACON (SMA)